createdAt,value
2018-12-09T00:00:20.724Z,20.30
2018-12-09T00:01:20.731Z,21.40
2018-12-09T00:02:20.697Z,28.90
2018-12-09T00:03:20.685Z,15.40
2018-12-09T00:04:20.735Z,17.90
2018-12-09T00:05:20.687Z,17.80
2018-12-09T00:06:20.656Z,17.90
2018-12-09T00:07:20.649Z,21.90
2018-12-09T00:08:20.638Z,22.40
2018-12-09T00:09:20.626Z,18.90
2018-12-09T00:10:20.643Z,18.40
2018-12-09T00:11:20.609Z,17.80
2018-12-09T00:12:20.584Z,8.90
2018-12-09T00:13:20.598Z,12.20
2018-12-09T00:14:20.567Z,14.50
2018-12-09T00:15:20.572Z,11.20
2018-12-09T00:16:20.611Z,22.10
2018-12-09T00:17:20.536Z,19.50
2018-12-09T00:18:20.519Z,11.10
2018-12-09T00:19:20.516Z,10.30
2018-12-09T00:20:20.511Z,12.50
2018-12-09T00:21:20.529Z,12.40
2018-12-09T00:22:20.479Z,11.90
2018-12-09T00:23:20.463Z,13.50
2018-12-09T00:24:20.460Z,13.60
2018-12-09T00:25:20.461Z,13.70
2018-12-09T00:26:20.459Z,15.60
2018-12-09T00:27:20.439Z,13.30
2018-12-09T00:28:20.410Z,14.20
2018-12-09T00:29:20.406Z,13.40
2018-12-09T00:30:20.426Z,15.10
2018-12-09T00:31:20.427Z,19.50
2018-12-09T00:32:20.364Z,15.70
2018-12-09T00:33:20.411Z,12.40
2018-12-09T00:34:20.344Z,17.90
2018-12-09T00:35:20.332Z,14.10
2018-12-09T00:36:20.317Z,14.00
2018-12-09T00:37:20.344Z,12.20
2018-12-09T00:38:20.318Z,14.40
2018-12-09T00:39:20.309Z,13.00
2018-12-09T00:40:20.274Z,16.80
2018-12-09T00:41:20.265Z,16.00
2018-12-09T00:42:20.360Z,12.90
2018-12-09T00:43:20.252Z,15.50
2018-12-09T00:44:20.234Z,13.70
2018-12-09T00:45:20.224Z,16.80
2018-12-09T00:46:20.215Z,15.30
2018-12-09T00:47:20.232Z,18.20
2018-12-09T00:48:20.199Z,14.10
2018-12-09T00:49:20.182Z,18.50
2018-12-09T00:50:20.174Z,15.00
2018-12-09T00:51:20.171Z,16.50
2018-12-09T00:52:20.141Z,20.00
2018-12-09T00:53:20.293Z,15.40
2018-12-09T00:54:20.124Z,17.50
2018-12-09T00:55:20.113Z,18.30
2018-12-09T00:56:20.103Z,21.40
2018-12-09T00:57:20.097Z,19.70
2018-12-09T00:58:20.079Z,21.10
2018-12-09T00:59:20.109Z,21.80
2018-12-09T01:00:20.064Z,19.60
2018-12-09T01:01:20.052Z,21.90
2018-12-09T01:02:20.032Z,19.90
2018-12-09T01:03:20.049Z,17.00
2018-12-09T01:04:20.027Z,18.60
2018-12-09T01:05:20.009Z,16.70
2018-12-09T01:06:20.010Z,15.20
2018-12-09T01:07:19.975Z,19.30
2018-12-09T01:08:19.967Z,18.10
2018-12-09T01:09:20.026Z,18.70
2018-12-09T01:10:19.948Z,20.60
2018-12-09T01:11:19.965Z,18.50
2018-12-09T01:12:19.929Z,19.70
2018-12-09T01:13:19.911Z,14.50
2018-12-09T01:14:19.964Z,13.30
2018-12-09T01:15:19.908Z,10.60
2018-12-09T01:16:19.878Z,18.40
2018-12-09T01:17:19.869Z,12.00
2018-12-09T01:18:19.880Z,22.20
2018-12-09T01:19:19.857Z,9.50
2018-12-09T01:20:19.853Z,12.20
2018-12-09T01:21:19.824Z,15.70
2018-12-09T01:22:19.812Z,11.20
2018-12-09T01:23:19.841Z,12.90
2018-12-09T01:24:19.786Z,29.80
2018-12-09T01:25:19.858Z,15.40
2018-12-09T01:26:19.767Z,15.40
2018-12-09T01:27:19.780Z,12.60
2018-12-09T01:28:19.743Z,9.70
2018-12-09T01:29:19.763Z,11.80
2018-12-09T01:30:19.722Z,9.70
2018-12-09T01:31:19.707Z,8.30
2018-12-09T01:32:19.722Z,8.90
2018-12-09T01:33:19.694Z,12.10
2018-12-09T01:34:19.740Z,9.10
2018-12-09T01:35:19.706Z,10.90
2018-12-09T01:36:19.653Z,11.10
2018-12-09T01:37:19.653Z,7.10
2018-12-09T01:38:19.629Z,9.00
2018-12-09T01:39:19.658Z,10.00
2018-12-09T01:40:19.623Z,9.80
2018-12-09T01:41:19.666Z,8.70
2018-12-09T01:42:19.596Z,16.30
2018-12-09T01:43:19.580Z,13.50
2018-12-09T01:44:19.586Z,9.60
2018-12-09T01:45:19.553Z,11.40
2018-12-09T01:46:19.552Z,8.10
2018-12-09T01:47:19.596Z,14.50
2018-12-09T01:48:19.520Z,7.70
2018-12-09T01:49:19.516Z,10.90
2018-12-09T01:50:19.503Z,9.50
2018-12-09T01:51:19.498Z,12.60
2018-12-09T01:52:19.505Z,5.90
2018-12-09T01:53:19.532Z,13.00
2018-12-09T01:54:19.453Z,8.20
2018-12-09T01:55:19.577Z,7.20
2018-12-09T01:56:19.533Z,10.80
2018-12-09T01:57:19.443Z,6.60
2018-12-09T01:58:19.435Z,6.60
2018-12-09T01:59:19.403Z,7.60
2018-12-09T02:00:19.408Z,8.40
2018-12-09T02:01:19.412Z,12.70
2018-12-09T02:02:19.375Z,7.50
2018-12-09T02:03:19.422Z,6.90
2018-12-09T02:04:19.398Z,6.70
2018-12-09T02:05:19.334Z,8.00
2018-12-09T02:06:19.332Z,7.40
2018-12-09T02:07:19.330Z,5.50
2018-12-09T02:08:19.306Z,8.10
2018-12-09T02:09:19.297Z,6.70
2018-12-09T02:10:19.314Z,6.10
2018-12-09T02:11:19.280Z,8.60
2018-12-09T02:12:19.262Z,9.40
2018-12-09T02:13:19.247Z,9.20
2018-12-09T02:14:19.230Z,8.80
2018-12-09T02:15:19.256Z,10.70
2018-12-09T02:16:19.226Z,12.80
2018-12-09T02:17:19.211Z,13.20
2018-12-09T02:18:19.212Z,13.30
2018-12-09T02:19:19.176Z,14.40
2018-12-09T02:20:19.182Z,13.20
2018-12-09T02:21:19.168Z,9.50
2018-12-09T02:22:19.147Z,18.00
2018-12-09T02:23:19.158Z,13.80
2018-12-09T02:24:19.140Z,18.70
2018-12-09T02:25:19.143Z,14.80
2018-12-09T02:26:19.111Z,13.60
2018-12-09T02:27:19.091Z,14.40
2018-12-09T02:28:19.081Z,15.50
2018-12-09T02:29:19.078Z,12.10
2018-12-09T02:30:19.061Z,14.70
2018-12-09T02:31:19.105Z,11.50
2018-12-09T02:32:19.057Z,15.90
2018-12-09T02:33:19.045Z,13.50
2018-12-09T02:34:19.019Z,14.00
2018-12-09T02:35:19.016Z,17.90
2018-12-09T02:36:19.003Z,19.20
2018-12-09T02:37:18.981Z,16.20
2018-12-09T02:38:18.969Z,16.10
2018-12-09T02:39:18.986Z,15.10
2018-12-09T02:40:18.949Z,15.20
2018-12-09T02:41:18.936Z,16.10
2018-12-09T02:42:18.929Z,16.20
2018-12-09T02:43:18.926Z,15.40
2018-12-09T02:44:18.930Z,16.40
2018-12-09T02:45:18.899Z,12.80
2018-12-09T02:46:18.885Z,13.10
2018-12-09T02:47:18.871Z,16.00
2018-12-09T02:48:18.892Z,12.70
2018-12-09T02:49:18.854Z,12.00
2018-12-09T02:50:18.841Z,10.80
2018-12-09T02:51:18.836Z,14.80
2018-12-09T02:52:18.815Z,13.50
2018-12-09T02:53:18.818Z,11.90
2018-12-09T02:54:18.826Z,14.50
2018-12-09T02:55:18.797Z,9.40
2018-12-09T02:56:18.778Z,10.50
2018-12-09T02:57:18.762Z,13.10
2018-12-09T02:58:18.765Z,9.80
2018-12-09T02:59:18.799Z,9.30
2018-12-09T03:00:18.731Z,7.10
2018-12-09T03:01:18.718Z,8.50
2018-12-09T03:02:18.709Z,9.70
2018-12-09T03:03:18.696Z,10.40
2018-12-09T03:04:18.685Z,9.30
2018-12-09T03:05:18.717Z,11.00
2018-12-09T03:06:18.665Z,13.30
2018-12-09T03:07:18.671Z,9.60
2018-12-09T03:08:18.643Z,9.20
2018-12-09T03:09:18.628Z,14.10
2018-12-09T03:10:18.620Z,14.80
2018-12-09T03:11:18.637Z,16.30
2018-12-09T03:12:18.600Z,14.10
2018-12-09T03:13:18.583Z,13.70
2018-12-09T03:14:18.571Z,15.60
2018-12-09T03:15:18.563Z,17.50
2018-12-09T03:16:18.556Z,15.10
2018-12-09T03:17:18.611Z,15.60
2018-12-09T03:18:18.532Z,17.40
2018-12-09T03:19:18.524Z,16.20
2018-12-09T03:20:18.515Z,16.20
2018-12-09T03:21:18.495Z,14.90
2018-12-09T03:22:18.481Z,13.00
2018-12-09T03:23:18.622Z,18.70
2018-12-09T03:24:18.595Z,15.40
2018-12-09T03:25:18.469Z,19.30
2018-12-09T03:26:18.441Z,17.00
2018-12-09T03:27:18.450Z,20.60
2018-12-09T03:28:18.418Z,19.30
2018-12-09T03:29:18.405Z,20.50
2018-12-09T03:30:18.412Z,24.50
2018-12-09T03:31:18.415Z,24.70
2018-12-09T03:32:18.382Z,22.90
2018-12-09T03:33:18.370Z,25.70
2018-12-09T03:34:18.352Z,18.60
2018-12-09T03:35:18.368Z,20.20
2018-12-09T03:36:32.967Z,17.60
2018-12-09T03:37:18.338Z,18.60
2018-12-09T03:38:18.310Z,18.60
2018-12-09T03:39:18.299Z,17.30
2018-12-09T03:40:18.296Z,23.80
2018-12-09T03:41:18.288Z,22.30
2018-12-09T03:42:18.263Z,21.90
2018-12-09T03:43:18.282Z,24.10
2018-12-09T03:44:18.253Z,22.50
2018-12-09T03:45:18.347Z,23.10
2018-12-09T03:46:18.242Z,23.40
2018-12-09T03:47:18.242Z,18.70
2018-12-09T03:48:18.194Z,21.60
2018-12-09T03:49:18.186Z,23.20
2018-12-09T03:50:18.195Z,21.30
2018-12-09T03:51:18.220Z,19.70
2018-12-09T03:52:18.171Z,23.60
2018-12-09T03:53:18.154Z,19.10
2018-12-09T03:54:18.139Z,19.60
2018-12-09T03:55:18.135Z,19.60
2018-12-09T03:56:18.122Z,19.90
2018-12-09T03:57:18.126Z,22.00
2018-12-09T03:58:18.103Z,21.30
2018-12-09T03:59:18.303Z,21.40
2018-12-09T04:00:18.067Z,20.50
2018-12-09T04:01:18.050Z,18.60
2018-12-09T04:02:18.057Z,23.30
2018-12-09T04:03:18.029Z,19.60
2018-12-09T04:04:18.044Z,23.10
2018-12-09T04:05:18.039Z,20.20
2018-12-09T04:06:18.006Z,20.10
2018-12-09T04:07:18.011Z,27.80
2018-12-09T04:08:17.977Z,23.30
2018-12-09T04:09:18.010Z,19.20
2018-12-09T04:10:17.959Z,19.10
2018-12-09T04:11:17.942Z,21.70
2018-12-09T04:12:17.978Z,18.30
2018-12-09T04:13:17.918Z,20.10
2018-12-09T04:14:17.915Z,20.70
2018-12-09T04:15:17.913Z,18.10
2018-12-09T04:16:17.889Z,26.70
2018-12-09T04:17:17.891Z,26.60
2018-12-09T04:18:17.879Z,22.40
2018-12-09T04:19:17.850Z,20.50
2018-12-09T04:20:17.867Z,23.80
2018-12-09T04:21:17.828Z,19.10
2018-12-09T04:22:17.815Z,21.70
2018-12-09T04:23:19.957Z,20.10
2018-12-09T04:24:17.794Z,17.50
2018-12-09T04:25:17.785Z,18.40
2018-12-09T04:26:17.837Z,15.90
2018-12-09T04:27:17.786Z,19.70
2018-12-09T04:28:17.764Z,20.00
2018-12-09T04:29:17.743Z,16.90
2018-12-09T04:30:17.763Z,19.30
2018-12-09T04:31:17.720Z,17.20
2018-12-09T04:32:17.722Z,21.00
2018-12-09T04:33:17.694Z,17.70
2018-12-09T04:34:17.704Z,18.60
2018-12-09T04:35:17.704Z,16.70
2018-12-09T04:36:17.665Z,20.20
2018-12-09T04:37:17.653Z,21.30
2018-12-09T04:38:17.650Z,17.20
2018-12-09T04:39:17.652Z,20.30
2018-12-09T04:40:17.612Z,19.60
2018-12-09T04:41:17.603Z,16.40
2018-12-09T04:42:17.594Z,20.20
2018-12-09T04:43:17.586Z,20.60
2018-12-09T04:44:17.579Z,20.50
2018-12-09T04:45:17.604Z,20.20
2018-12-09T04:46:17.556Z,20.10
2018-12-09T04:47:17.538Z,19.60
2018-12-09T04:48:17.528Z,20.10
2018-12-09T04:49:17.520Z,19.30
2018-12-09T04:50:17.584Z,17.00
2018-12-09T04:51:17.500Z,18.30
2018-12-09T04:52:17.492Z,18.90
2018-12-09T04:53:17.496Z,21.70
2018-12-09T04:54:17.467Z,17.90
2018-12-09T04:55:17.457Z,19.40
2018-12-09T04:56:17.451Z,18.90
2018-12-09T04:57:17.433Z,22.20
2018-12-09T04:58:17.438Z,21.90
2018-12-09T04:59:17.402Z,18.40
2018-12-09T05:00:17.397Z,17.40
2018-12-09T05:01:17.402Z,18.40
2018-12-09T05:02:17.374Z,16.70
2018-12-09T05:03:17.361Z,16.50
2018-12-09T05:04:17.361Z,18.10
2018-12-09T05:05:17.340Z,18.00
2018-12-09T05:06:17.341Z,17.60
2018-12-09T05:07:17.316Z,19.80
2018-12-09T05:08:17.306Z,19.10
2018-12-09T05:09:17.304Z,16.50
2018-12-09T05:10:17.296Z,20.00
2018-12-09T05:11:17.271Z,19.20
2018-12-09T05:12:17.287Z,18.00
2018-12-09T05:13:17.250Z,19.00
2018-12-09T05:14:17.236Z,19.10
2018-12-09T05:15:17.227Z,18.80
2018-12-09T05:16:17.231Z,18.60
2018-12-09T05:17:17.209Z,19.70
2018-12-09T05:18:17.227Z,19.00
2018-12-09T05:19:17.187Z,18.50
2018-12-09T05:20:17.172Z,14.90
2018-12-09T05:21:17.163Z,15.70
2018-12-09T05:22:17.175Z,18.50
2018-12-09T05:23:17.141Z,19.40
2018-12-09T05:24:17.139Z,15.00
2018-12-09T05:25:17.120Z,20.80
2018-12-09T05:26:17.107Z,19.30
2018-12-09T05:27:17.111Z,19.10
2018-12-09T05:28:17.093Z,18.00
2018-12-09T05:29:17.069Z,19.10
2018-12-09T05:30:17.069Z,21.00
2018-12-09T05:31:17.047Z,14.80
2018-12-09T05:32:17.056Z,15.30
2018-12-09T05:33:17.025Z,16.10
2018-12-09T05:34:17.047Z,19.20
2018-12-09T05:35:17.000Z,18.40
2018-12-09T05:36:16.997Z,19.10
2018-12-09T05:37:16.980Z,20.70
2018-12-09T05:38:16.983Z,19.30
2018-12-09T05:39:16.973Z,15.30
2018-12-09T05:40:17.056Z,15.30
2018-12-09T05:41:16.953Z,19.50
2018-12-09T05:42:16.925Z,16.70
2018-12-09T05:43:16.928Z,16.20
2018-12-09T05:44:16.916Z,14.30
2018-12-09T05:45:16.897Z,18.60
2018-12-09T05:46:16.880Z,16.80
2018-12-09T05:47:16.899Z,15.90
2018-12-09T05:48:16.862Z,15.90
2018-12-09T05:49:16.860Z,17.10
2018-12-09T05:50:16.839Z,17.40
2018-12-09T05:51:16.846Z,16.60
2018-12-09T05:52:16.822Z,21.30
2018-12-09T05:53:16.805Z,16.20
2018-12-09T05:54:16.844Z,16.60
2018-12-09T05:55:16.780Z,15.80
2018-12-09T05:56:16.775Z,14.90
2018-12-09T05:57:16.791Z,14.90
2018-12-09T05:58:16.746Z,15.20
2018-12-09T05:59:16.786Z,12.70
2018-12-09T06:00:16.764Z,15.40
2018-12-09T06:01:16.719Z,15.00
2018-12-09T06:02:16.699Z,13.30
2018-12-09T06:03:16.697Z,15.70
2018-12-09T06:04:16.676Z,16.30
2018-12-09T06:05:16.683Z,15.50
2018-12-09T06:06:16.654Z,13.60
2018-12-09T06:07:16.651Z,17.70
2018-12-09T06:08:16.632Z,10.90
2018-12-09T06:09:16.637Z,13.00
2018-12-09T06:10:16.638Z,12.50
2018-12-09T06:11:16.644Z,11.60
2018-12-09T06:12:16.600Z,10.20
2018-12-09T06:13:16.601Z,11.60
2018-12-09T06:14:16.569Z,13.20
2018-12-09T06:15:16.563Z,11.50
2018-12-09T06:16:16.586Z,12.80
2018-12-09T06:17:16.534Z,11.00
2018-12-09T06:18:16.532Z,9.40
2018-12-09T06:19:16.542Z,15.50
2018-12-09T06:20:16.506Z,13.00
2018-12-09T06:21:16.513Z,11.70
2018-12-09T06:22:16.571Z,10.50
2018-12-09T06:23:16.527Z,13.10
2018-12-09T06:24:16.461Z,12.80
2018-12-09T06:25:19.464Z,10.50
2018-12-09T06:26:16.442Z,10.60
2018-12-09T06:27:16.437Z,10.00
2018-12-09T06:28:16.424Z,13.60
2018-12-09T06:29:16.450Z,9.90
2018-12-09T06:35:06.998Z,7.40
2018-12-09T06:36:06.212Z,11.50
2018-12-09T06:37:05.887Z,13.70
2018-12-09T06:38:05.907Z,7.70
2018-12-09T06:39:05.920Z,10.50
2018-12-09T06:40:06.026Z,8.40
2018-12-09T06:41:05.842Z,13.10
2018-12-09T06:47:46.962Z,9.10
2018-12-09T06:48:46.547Z,11.00
2018-12-09T06:49:46.390Z,12.50
2018-12-09T06:50:46.474Z,10.90
2018-12-09T06:51:46.368Z,12.70
2018-12-09T06:52:46.364Z,9.10
2018-12-09T06:53:46.449Z,12.00
2018-12-09T06:54:46.344Z,11.90
2018-12-09T06:57:33.682Z,13.10
2018-12-09T06:58:33.219Z,13.60
2018-12-09T06:59:33.337Z,10.90
2018-12-09T08:13:35.221Z,18.00
2018-12-09T08:22:20.230Z,10.80
2018-12-09T08:23:19.794Z,19.40
2018-12-09T08:24:20.090Z,14.90
2018-12-09T08:25:29.583Z,22.60
2018-12-09T08:26:20.027Z,20.90
2018-12-09T08:27:20.046Z,19.40
2018-12-09T08:28:19.920Z,20.50
2018-12-09T08:29:19.741Z,19.30
2018-12-09T08:30:19.732Z,18.70
2018-12-09T08:31:19.707Z,18.40
2018-12-09T08:32:19.659Z,23.40
2018-12-09T08:33:19.664Z,23.90
2018-12-09T08:34:19.703Z,20.60
2018-12-09T08:35:19.646Z,21.40
2018-12-09T08:36:19.611Z,20.60
2018-12-09T08:37:19.729Z,17.90
2018-12-09T08:38:19.593Z,22.10
2018-12-09T08:39:19.574Z,23.40
2018-12-09T08:40:19.596Z,23.70
2018-12-09T08:41:19.601Z,21.70
2018-12-09T08:42:19.577Z,16.80
2018-12-09T08:43:19.579Z,19.20
2018-12-09T08:44:19.841Z,19.30
2018-12-09T08:45:19.567Z,15.30
2018-12-09T08:46:19.502Z,12.00
2018-12-09T08:47:19.564Z,13.50
2018-12-09T08:48:19.592Z,9.50
2018-12-09T08:49:19.527Z,10.30
2018-12-09T08:50:19.465Z,11.70
2018-12-09T08:51:19.509Z,7.90
2018-12-09T08:52:19.463Z,9.70
2018-12-09T08:53:19.465Z,10.30
2018-12-09T08:54:19.495Z,10.00
2018-12-09T08:55:19.408Z,12.90
2018-12-09T08:56:19.435Z,7.20
2018-12-09T08:57:19.381Z,5.60
2018-12-09T08:58:20.274Z,9.30
2018-12-09T08:59:19.359Z,12.70
2018-12-09T09:00:19.362Z,3.60
2018-12-09T09:01:19.334Z,8.10
2018-12-09T09:02:19.425Z,3.10
2018-12-09T09:03:19.444Z,2.20
2018-12-09T09:04:19.950Z,4.30
2018-12-09T09:05:19.313Z,2.00
2018-12-09T09:06:19.283Z,2.60
2018-12-09T09:07:19.456Z,2.30
2018-12-09T09:08:19.295Z,3.10
2018-12-09T09:09:19.263Z,3.20
2018-12-09T09:10:19.268Z,3.30
2018-12-09T09:11:19.266Z,2.90
2018-12-09T09:12:19.221Z,2.20
2018-12-09T09:13:19.232Z,2.90
2018-12-09T09:14:19.239Z,3.70
2018-12-09T09:15:19.206Z,5.80
2018-12-09T09:16:19.185Z,2.80
2018-12-09T09:17:19.161Z,4.40
2018-12-09T09:18:19.206Z,4.30
2018-12-09T09:19:19.140Z,4.40
2018-12-09T09:20:19.172Z,2.80
2018-12-09T09:21:19.113Z,3.00
2018-12-09T09:22:19.110Z,3.80
2018-12-09T09:23:19.093Z,2.20
2018-12-09T09:24:19.179Z,2.70
2018-12-09T09:25:19.129Z,3.20
2018-12-09T09:26:19.195Z,2.70
2018-12-09T09:27:19.061Z,4.20
2018-12-09T09:55:32.959Z,2.00
2018-12-09T09:56:32.723Z,1.50
2018-12-09T09:57:32.724Z,1.70
2018-12-09T09:58:32.844Z,2.60
2018-12-09T09:59:33.067Z,1.10
2018-12-09T10:00:32.511Z,1.60
2018-12-09T10:10:53.211Z,0.90
2018-12-09T10:11:52.941Z,3.60
2018-12-09T10:12:52.998Z,2.40
2018-12-09T10:13:52.877Z,4.00
2018-12-09T10:14:52.878Z,2.10
2018-12-09T10:20:21.879Z,4.30
2018-12-09T10:21:21.374Z,3.80
2018-12-09T10:22:21.483Z,1.90
2018-12-09T10:23:21.273Z,2.20
2018-12-09T10:24:21.264Z,2.00
2018-12-09T10:25:21.359Z,1.40
2018-12-09T10:26:21.318Z,2.90
2018-12-09T10:27:21.248Z,2.10
2018-12-09T10:28:21.209Z,1.70
2018-12-09T10:29:21.199Z,2.00
2018-12-09T10:30:21.184Z,2.10
2018-12-09T10:31:22.151Z,1.90
2018-12-09T10:32:21.187Z,3.30
2018-12-09T10:33:21.155Z,3.00
2018-12-09T10:34:21.152Z,2.30
2018-12-09T10:35:21.174Z,2.40
2018-12-09T10:36:21.121Z,1.50
2018-12-09T10:37:21.123Z,2.40
2018-12-09T10:38:21.133Z,2.30
2018-12-09T10:39:21.106Z,2.10
2018-12-09T10:40:21.103Z,3.10
2018-12-09T10:41:21.122Z,3.80
2018-12-09T10:42:21.164Z,1.80
2018-12-09T10:43:21.101Z,2.10
2018-12-09T10:44:21.087Z,1.20
2018-12-09T10:45:21.022Z,2.30
2018-12-09T10:46:21.892Z,3.00
2018-12-09T10:47:21.018Z,3.40
2018-12-09T10:48:20.985Z,3.00
2018-12-09T10:49:20.973Z,1.80
2018-12-09T10:50:20.961Z,1.60
2018-12-09T10:51:20.961Z,1.20
2018-12-09T10:52:20.964Z,1.00
2018-12-09T10:53:21.065Z,2.30
2018-12-09T10:54:20.945Z,2.80
2018-12-09T10:55:20.906Z,2.80
2018-12-09T10:56:20.912Z,2.90
2018-12-09T10:57:20.881Z,2.50
2018-12-09T10:58:20.891Z,3.20
2018-12-09T10:59:20.874Z,5.00
2018-12-09T11:00:20.855Z,2.90
2018-12-09T11:01:20.851Z,2.20
2018-12-09T11:02:20.877Z,2.60
2018-12-09T11:03:20.816Z,3.60
2018-12-09T11:04:20.808Z,2.90
2018-12-09T11:05:20.848Z,3.10
2018-12-09T11:06:20.783Z,2.90
2018-12-09T11:07:20.784Z,2.30
2018-12-09T11:08:20.758Z,3.30
2018-12-09T11:09:20.748Z,3.40
2018-12-09T11:10:20.742Z,1.30
2018-12-09T11:11:20.728Z,1.80
2018-12-09T11:12:20.753Z,1.80
2018-12-09T11:13:20.722Z,2.60
2018-12-09T11:14:20.712Z,5.70
2018-12-09T11:15:21.677Z,1.40
2018-12-09T11:16:20.676Z,3.00
2018-12-09T11:17:20.660Z,2.50
2018-12-09T11:18:20.649Z,3.20
2018-12-09T11:19:20.695Z,2.10
2018-12-09T11:20:20.661Z,2.40
2018-12-09T11:21:20.617Z,3.80
2018-12-09T11:22:20.619Z,2.20
2018-12-09T11:23:20.612Z,2.20
2018-12-09T11:24:20.601Z,2.50
2018-12-09T11:25:20.600Z,2.80
2018-12-09T11:26:20.563Z,2.20
2018-12-09T11:28:37.448Z,2.20
2018-12-09T11:29:36.989Z,2.00
2018-12-09T11:30:36.952Z,2.30
2018-12-09T11:31:36.968Z,3.20
2018-12-09T11:32:36.864Z,3.20
2018-12-09T11:33:36.879Z,3.10
2018-12-09T11:34:36.840Z,2.90
2018-12-09T11:35:36.826Z,2.40
2018-12-09T11:36:36.810Z,3.20
2018-12-09T11:37:36.825Z,4.40
2018-12-09T11:38:36.790Z,1.80
2018-12-09T11:39:36.791Z,1.60
2018-12-09T11:40:36.791Z,3.20
2018-12-09T11:41:36.771Z,2.40
2018-12-09T11:42:36.750Z,2.30
2018-12-09T11:43:36.732Z,3.70
2018-12-09T11:44:36.732Z,2.90
2018-12-09T11:45:36.710Z,3.50
2018-12-09T11:46:36.776Z,2.60
2018-12-09T11:47:36.685Z,3.50
2018-12-09T11:48:36.689Z,6.90
2018-12-09T11:49:36.700Z,4.30
2018-12-09T11:50:36.654Z,3.50
2018-12-09T11:51:36.639Z,5.80
2018-12-09T11:52:36.637Z,5.10
2018-12-09T11:53:36.707Z,4.10
2018-12-09T11:54:36.616Z,5.00
2018-12-09T11:55:36.626Z,3.10
2018-12-09T11:56:36.583Z,5.00
2018-12-09T11:57:36.575Z,4.10
2018-12-09T11:58:36.567Z,4.20
2018-12-09T11:59:36.552Z,5.70
2018-12-09T12:00:36.586Z,5.30
2018-12-09T12:01:36.553Z,3.00
2018-12-09T12:02:36.519Z,4.20
2018-12-09T12:03:36.508Z,4.80
2018-12-09T12:04:36.501Z,5.10
2018-12-09T12:05:36.483Z,5.60
2018-12-09T12:06:36.493Z,5.40
2018-12-09T12:07:36.458Z,3.90
2018-12-09T12:08:36.457Z,4.90
2018-12-09T12:09:36.441Z,4.20
2018-12-09T12:10:36.429Z,4.30
2018-12-09T12:11:36.434Z,5.30
2018-12-09T12:12:36.464Z,4.80
2018-12-09T12:13:36.398Z,3.60
2018-12-09T12:14:36.410Z,4.60
2018-12-09T12:15:36.377Z,4.70
2018-12-09T12:16:36.382Z,7.30
2018-12-09T12:17:36.349Z,4.40
2018-12-09T12:18:36.338Z,7.10
2018-12-09T12:19:36.328Z,4.90
2018-12-09T12:20:36.340Z,7.10
2018-12-09T12:21:36.327Z,5.10
2018-12-09T12:22:36.322Z,6.40
2018-12-09T12:23:36.897Z,5.80
2018-12-09T12:24:36.295Z,4.90
2018-12-09T12:25:36.297Z,6.20
2018-12-09T12:26:36.348Z,4.80
2018-12-09T12:27:36.274Z,6.60
2018-12-09T12:28:36.236Z,6.90
2018-12-09T12:29:36.231Z,6.40
2018-12-09T12:30:36.209Z,7.40
2018-12-09T12:31:36.221Z,5.30
2018-12-09T12:32:36.187Z,6.10
2018-12-09T12:33:36.204Z,6.30
2018-12-09T12:34:45.880Z,8.20
2018-12-09T12:35:44.883Z,6.40
2018-12-09T12:36:37.345Z,6.90
2018-12-09T12:42:53.555Z,5.20
2018-12-09T12:43:53.211Z,5.20
2018-12-09T12:44:53.082Z,4.80
2018-12-09T12:45:53.136Z,6.70
2018-12-09T12:46:53.009Z,5.60
2018-12-09T12:47:52.987Z,7.60
2018-12-09T12:48:52.978Z,5.80
2018-12-09T12:49:53.000Z,7.00
2018-12-09T12:50:53.269Z,8.20
2018-12-09T12:54:26.385Z,8.50
2018-12-09T12:55:25.896Z,4.80
2018-12-09T12:56:25.961Z,5.60
2018-12-09T12:57:25.860Z,6.60
2018-12-09T12:58:25.811Z,7.60
2018-12-09T13:11:39.779Z,6.50
2018-12-09T13:25:32.894Z,7.20
2018-12-09T13:26:32.091Z,10.80
2018-12-09T13:27:32.218Z,10.60
2018-12-09T14:52:48.500Z,11.20
2018-12-09T15:07:31.328Z,6.90
2018-12-09T15:08:30.974Z,9.20
2018-12-09T15:09:32.704Z,8.60
2018-12-09T15:35:58.928Z,4.60
2018-12-09T15:38:59.677Z,11.30
2018-12-09T15:39:59.153Z,11.60
2018-12-09T15:40:59.215Z,10.70
2018-12-09T15:41:59.035Z,9.20
2018-12-09T15:44:17.875Z,12.00
2018-12-09T15:45:17.386Z,9.40
2018-12-09T15:46:17.403Z,9.80
2018-12-09T15:48:29.189Z,7.20
2018-12-09T15:49:28.710Z,12.20
2018-12-09T15:50:29.226Z,8.60
2018-12-09T15:51:28.638Z,11.80
2018-12-09T15:52:28.654Z,11.30
2018-12-09T15:53:28.618Z,12.20
2018-12-09T15:54:28.615Z,9.70
2018-12-09T15:55:28.607Z,10.60
2018-12-09T15:56:28.634Z,13.90
2018-12-09T15:57:28.567Z,14.20
2018-12-09T15:58:28.562Z,12.70
2018-12-09T15:59:32.236Z,16.20
2018-12-09T16:00:28.544Z,9.50
2018-12-09T16:01:28.606Z,7.50
2018-12-09T16:02:28.517Z,10.70
2018-12-09T16:03:28.503Z,10.90
2018-12-09T16:04:28.492Z,7.10
2018-12-09T16:05:28.490Z,8.60
2018-12-09T16:06:28.484Z,8.10
2018-12-09T16:07:28.517Z,11.80
2018-12-09T16:08:31.559Z,9.90
2018-12-09T16:09:28.515Z,9.50
2018-12-09T16:15:12.246Z,5.00
2018-12-09T16:16:11.591Z,11.20
2018-12-09T16:21:59.638Z,17.00
2018-12-09T16:28:01.245Z,10.10
2018-12-09T16:36:49.778Z,6.80
2018-12-09T16:51:30.623Z,14.20
2018-12-09T16:52:30.220Z,10.50
2018-12-09T16:53:30.148Z,13.70
2018-12-09T16:58:42.048Z,9.70
2018-12-09T17:06:06.074Z,9.40
2018-12-09T17:09:52.132Z,7.70
2018-12-09T17:10:51.828Z,11.50
2018-12-09T17:15:02.227Z,7.70
2018-12-09T17:16:01.823Z,9.70
2018-12-09T17:17:01.846Z,12.20
2018-12-09T17:18:01.790Z,12.30
2018-12-09T17:19:01.766Z,9.60
2018-12-09T17:20:06.256Z,7.90
2018-12-09T17:21:02.633Z,10.70
2018-12-09T17:24:05.568Z,13.10
2018-12-09T17:25:05.845Z,14.60
2018-12-09T17:26:05.004Z,9.60
2018-12-09T17:28:15.874Z,4.70
2018-12-09T17:29:15.431Z,9.80
2018-12-09T17:30:15.352Z,13.40
2018-12-09T17:31:15.372Z,12.20
2018-12-09T17:32:15.248Z,11.60
2018-12-09T17:33:15.195Z,11.70
2018-12-09T17:34:15.197Z,13.50
2018-12-09T17:35:15.160Z,12.50
2018-12-09T17:36:15.220Z,13.80
2018-12-09T17:37:15.142Z,11.60
2018-12-09T17:38:15.145Z,11.30
2018-12-09T17:39:25.606Z,12.10
2018-12-09T17:42:01.925Z,11.80
2018-12-09T17:43:01.668Z,11.90
2018-12-09T17:43:59.258Z,14.00
2018-12-09T17:44:58.314Z,12.40
2018-12-09T17:45:58.356Z,11.60
2018-12-09T17:46:58.272Z,12.50
2018-12-09T17:47:58.357Z,12.50
2018-12-09T17:48:58.456Z,10.60
2018-12-09T17:52:40.734Z,13.40
2018-12-09T17:53:39.855Z,11.40
2018-12-09T17:54:39.920Z,11.10
2018-12-09T17:55:40.496Z,11.30
2018-12-09T17:56:39.888Z,14.50
2018-12-09T17:57:39.782Z,11.40
2018-12-09T17:58:39.761Z,21.10
2018-12-09T17:59:39.785Z,14.10
2018-12-09T18:00:39.750Z,10.50
2018-12-09T18:01:39.730Z,14.40
2018-12-09T18:02:39.721Z,12.90
2018-12-09T18:03:39.747Z,18.40
2018-12-09T18:04:39.703Z,12.30
2018-12-09T18:05:39.718Z,12.80
2018-12-09T18:06:39.681Z,15.50
2018-12-09T18:07:39.704Z,13.00
2018-12-09T18:08:39.748Z,13.20
2018-12-09T18:09:39.683Z,11.70
2018-12-09T18:10:39.682Z,10.10
2018-12-09T18:11:39.672Z,14.60
2018-12-09T18:12:47.745Z,11.30
2018-12-09T18:13:40.700Z,13.30
2018-12-09T18:14:39.587Z,18.20
2018-12-09T18:15:39.604Z,16.20
2018-12-09T18:16:39.589Z,13.20
2018-12-09T18:17:39.559Z,14.10
2018-12-09T18:18:39.600Z,17.00
2018-12-09T18:22:04.106Z,12.80
2018-12-09T18:23:04.081Z,14.20
2018-12-09T18:24:06.810Z,18.00
2018-12-09T18:26:34.099Z,20.40
2018-12-09T18:27:32.096Z,17.20
2018-12-09T18:30:30.128Z,11.60
2018-12-09T18:31:29.776Z,12.00
2018-12-09T18:32:29.970Z,14.10
2018-12-09T18:33:29.833Z,14.80
2018-12-09T18:34:29.707Z,13.10
2018-12-09T18:35:29.638Z,17.10
2018-12-09T18:36:29.715Z,21.60
2018-12-09T18:37:29.619Z,15.70
2018-12-09T18:38:29.620Z,17.30
2018-12-09T18:39:29.674Z,13.90
2018-12-09T18:40:30.381Z,18.40
2018-12-09T18:41:29.638Z,18.50
2018-12-09T18:42:30.912Z,20.70
2018-12-09T18:43:29.550Z,14.50
2018-12-09T18:44:29.562Z,21.00
2018-12-09T18:45:29.538Z,13.00
2018-12-09T18:46:29.677Z,14.80
2018-12-09T18:47:29.504Z,20.10
2018-12-09T18:48:29.495Z,18.70
2018-12-09T18:49:29.510Z,20.80
2018-12-09T18:50:29.482Z,18.70
2018-12-09T18:51:31.373Z,19.40
2018-12-09T18:52:29.483Z,20.10
2018-12-09T18:55:48.512Z,12.80
2018-12-09T19:00:16.248Z,18.80
2018-12-09T19:05:50.815Z,16.30
2018-12-09T19:06:50.335Z,16.30
2018-12-09T19:09:48.374Z,16.40
2018-12-09T19:10:47.895Z,17.10
2018-12-09T19:11:48.029Z,15.20
2018-12-09T19:12:48.604Z,19.90
2018-12-09T19:17:06.767Z,6.50
2018-12-09T19:18:06.301Z,17.10
2018-12-09T19:19:06.718Z,13.00